Airfield :
LOGIN :

Register | Disclaimer

   EN    FR    IT 

 










Legend :    VFR   Marginal VFR   IFR   Intensive IFR   Very Intensive IFR
Visi :
Ceiling :
>= 8 km
>= 3000ft
5 to 8 km
1000 to 3000 ft
1500m to 5 km
500 to 1000 ft
800 to 1500m
200 to 500 ft
< 800m
< 200 ft
Symbols :   Thunderstorms  Fog  Heavy snow  Heavy precipitations  Wind > 20 kt
SIGMETs :     Misc.  Thunderstorms  Icing  Turbulence  Mountain Waves  Volcanic Ashes






- Airport Elevation : 446 ft
- IATA code : VNE


LFRV - Vannes-Meucon

CURRENT METAR :
  • 202100Z AUTO 30005KT CAVOK 04/01 Q1027

EXPIRED METARs :
  • 202030Z AUTO 28003KT CAVOK 05/01 Q1027
  • 202000Z AUTO 30004KT CAVOK 05/01 Q1026
  • 201930Z AUTO 32003KT CAVOK 06/02 Q1026
  • 201900Z AUTO 31006KT CAVOK 06/03 Q1025
  • 201830Z AUTO VRB03KT 9999 SCT042 BKN052 06/03 Q1025

TAF N/A



MET'MAP, your aeronautical weather chart ! - Copyright ORBIFLY December 2007 - Disclaimer

ORBIFLY MET'MAP TEAM :

Programming & Development : Alexandra Zaïnal
Concept & original design : Baudouin d'Aumeries
Assistance for programming : Marc-Olivier Méhu
Technical & hardware support : Manuel Goepfert

Contact : metmap@orbifly.com




SOURCES & CREDITS :

   NOAA